Time;durP1;ratioP1;P1;durP2;ratioP2;P2;SDS_P1;SDS_P2;PMS_P1;PMS_P2;Temp;Humidity;BMP_temperature;BMP_pressure;BME280_temperature;BME280_humidity;BME280_pressure;Samples;Min_cycle;Max_cycle;Signal;HPM_P1;HPM_P2
2022/09/28 00:00:55;;;;;;;;;;;;;;;13.31;62.84;98261.97;4277727;33;34391;-91
2022/09/28 00:03:27;;;;;;;;;;;;;;;13.33;60.41;98260.12;4281104;33;33473;-89
2022/09/28 00:06:03;;;;;;;;;;;;;;;13.37;59.46;98248.66;4263576;33;34050;-88
2022/09/28 00:08:38;;;;;;;;;;;;;;;13.41;58.87;98237.19;4282099;33;32361;-92
2022/09/28 00:11:09;;;;;;;;;;;;;;;13.22;59.76;98243.22;4267718;33;35650;-89
2022/09/28 00:13:52;;;;;;;;;;;;;;;13.09;61.24;98234.28;4284117;33;33745;-89
2022/09/28 00:16:34;;;;;;;;;;;;;;;13.10;61.12;98233.41;4265836;33;35925;-91
2022/09/28 00:19:09;;;;;;;;;;;;;;;13.17;60.30;98236.56;4265299;33;34039;-90
2022/09/28 00:21:47;;;;;;;;;;;;;;;13.13;61.40;98222.81;4275475;33;34549;-90
2022/09/28 00:24:24;;;;;;;;;;;;;;;13.18;61.57;98240.84;4281691;33;33963;-89
2022/09/28 00:26:55;;;;;;;;;;;;;;;13.24;61.51;98236.19;4264408;33;33758;-91
2022/09/28 00:29:27;;;;;;;;;;;;;;;13.29;60.51;98232.53;4265637;33;36292;-88
2022/09/28 00:31:58;;;;;;;;;;;;;;;13.10;61.36;98236.00;4265806;33;34640;-89
2022/09/28 00:34:30;;;;;;;;;;;;;;;12.97;61.18;98232.25;4269164;33;34639;-88
2022/09/28 00:37:01;;;;;;;;;;;;;;;13.10;60.68;98233.41;4272300;33;35123;-90
2022/09/28 00:39:37;;;;;;;;;;;;;;;13.15;59.69;98241.00;4281651;33;33831;-90
2022/09/28 00:42:10;;;;;;;;;;;;;;;12.96;60.77;98236.62;4269744;33;34647;-91
2022/09/28 00:44:40;;;;;;;;;;;;;;;12.96;60.00;98236.62;4281489;33;34917;-90
2022/09/28 00:47:14;;;;;;;;;;;;;;;12.71;60.81;98236.03;4261626;33;34288;-89
2022/09/28 00:49:43;;;;;;;;;;;;;;;12.57;62.00;98244.50;4261879;33;33341;-89
2022/09/28 00:52:16;;;;;;;;;;;;;;;12.71;61.19;98244.72;4269825;33;34878;-90
2022/09/28 00:54:47;;;;;;;;;;;;;;;12.66;61.84;98230.22;4265791;33;34053;-91
2022/09/28 00:57:16;;;;;;;;;;;;;;;12.84;60.43;98228.53;4268911;33;35088;-89
2022/09/28 00:59:45;;;;;;;;;;;;;;;13.03;59.59;98238.03;4274821;33;32869;-90
2022/09/28 01:02:14;;;;;;;;;;;;;;;12.80;60.91;98240.84;4264789;33;35188;-89
2022/09/28 01:04:46;;;;;;;;;;;;;;;12.65;61.73;98242.38;4275384;33;33779;-89
2022/09/28 01:07:17;;;;;;;;;;;;;;;12.71;61.13;98242.13;4259458;33;34447;-88
2022/09/28 01:09:49;;;;;;;;;;;;;;;12.58;61.68;98243.56;4279616;33;34126;-92
2022/09/28 01:12:22;;;;;;;;;;;;;;;12.94;61.66;98240.22;4274506;33;34385;-89
2022/09/28 01:14:51;;;;;;;;;;;;;;;12.86;61.43;98239.75;4283793;33;34670;-88
2022/09/28 01:17:24;;;;;;;;;;;;;;;13.17;60.32;98242.59;4270136;33;35104;-90
2022/09/28 01:20:11;;;;;;;;;;;;;;;13.28;58.46;98249.94;4282579;33;33058;-91
2022/09/28 01:22:56;;;;;;;;;;;;;;;13.10;59.09;98248.19;4272206;33;32979;-89
2022/09/28 01:25:31;;;;;;;;;;;;;;;13.21;58.67;98245.91;4269188;33;34233;-92
2022/09/28 01:28:02;;;;;;;;;;;;;;;13.21;58.21;98254.53;4270871;33;34392;-88
2022/09/28 01:30:37;;;;;;;;;;;;;;;13.12;59.59;98249.78;4266788;33;34185;-89
2022/09/28 01:33:14;;;;;;;;;;;;;;;13.07;58.10;98256.09;4269471;33;34501;-89
2022/09/28 01:35:44;;;;;;;;;;;;;;;13.08;58.21;98255.22;4275844;33;34927;-91
2022/09/28 01:38:16;;;;;;;;;;;;;;;12.67;60.81;98256.16;4274016;33;33066;-90
2022/09/28 01:40:46;;;;;;;;;;;;;;;12.82;61.28;98255.47;4270357;33;34475;-89
2022/09/28 01:43:20;;;;;;;;;;;;;;;13.09;60.82;98262.94;4268596;33;34436;-88
2022/09/28 01:45:49;;;;;;;;;;;;;;;13.19;60.40;98268.56;4259531;33;35561;-91
2022/09/28 01:48:29;;;;;;;;;;;;;;;13.08;61.27;98271.66;4281240;33;33195;-88
2022/09/28 01:51:00;;;;;;;;;;;;;;;13.09;61.55;98275.94;4272984;33;33525;-90
2022/09/28 01:53:30;;;;;;;;;;;;;;;13.02;61.70;98270.19;4276336;33;35098;-89
2022/09/28 01:56:02;;;;;;;;;;;;;;;13.22;60.67;98271.03;4269431;33;34376;-89
2022/09/28 01:58:32;;;;;;;;;;;;;;;12.94;61.51;98258.44;4282062;33;34937;-89
2022/09/28 02:01:03;;;;;;;;;;;;;;;13.02;61.81;98258.91;4284575;33;33063;-88
2022/09/28 02:03:34;;;;;;;;;;;;;;;13.10;61.75;98264.63;4271153;33;32708;-89
2022/09/28 02:06:05;;;;;;;;;;;;;;;13.00;62.22;98271.19;4269851;33;33988;-91
2022/09/28 02:08:35;;;;;;;;;;;;;;;12.73;63.70;98270.66;4284300;33;33785;-90
2022/09/28 02:11:06;;;;;;;;;;;;;;;13.02;62.12;98267.59;4273570;33;33304;-89
2022/09/28 02:13:37;;;;;;;;;;;;;;;12.89;62.88;98271.66;4277394;33;34215;-89
2022/09/28 02:16:09;;;;;;;;;;;;;;;13.24;61.69;98267.44;4269477;33;33891;-91
2022/09/28 02:18:38;;;;;;;;;;;;;;;12.75;63.53;98266.22;4255615;33;34717;-88
2022/09/28 02:21:11;;;;;;;;;;;;;;;13.01;62.55;98259.84;4257960;33;34002;-89
2022/09/28 02:23:40;;;;;;;;;;;;;;;13.13;59.69;98267.09;4272120;33;34086;-89
2022/09/28 02:26:09;;;;;;;;;;;;;;;13.14;59.45;98266.16;4270532;33;35302;-89
2022/09/28 02:28:40;;;;;;;;;;;;;;;12.63;60.81;98262.41;4268777;33;34790;-89
2022/09/28 02:31:11;;;;;;;;;;;;;;;12.84;60.89;98270.19;4271750;33;34196;-89
2022/09/28 02:33:40;;;;;;;;;;;;;;;13.02;59.25;98267.59;4270588;33;35285;-90
2022/09/28 02:36:13;;;;;;;;;;;;;;;12.66;61.38;98267.50;4272869;33;33408;-90
2022/09/28 02:38:43;;;;;;;;;;;;;;;13.01;60.40;98267.66;4265886;33;34766;-91
2022/09/28 02:41:25;;;;;;;;;;;;;;;13.14;61.06;98270.53;4259913;33;34204;-89
2022/09/28 02:44:01;;;;;;;;;;;;;;;13.06;61.16;98276.09;4278592;33;33951;-91
2022/09/28 02:46:33;;;;;;;;;;;;;;;13.21;61.51;98267.56;4269261;33;34472;-91
2022/09/28 02:49:10;;;;;;;;;;;;;;;13.08;61.98;98271.66;4268861;33;35565;-92
2022/09/28 02:51:52;;;;;;;;;;;;;;;13.05;62.59;98274.41;4258322;33;34431;-90
2022/09/28 02:54:29;;;;;;;;;;;;;;;12.84;62.61;98272.78;4276890;33;34613;-90
2022/09/28 02:57:05;;;;;;;;;;;;;;;12.97;62.28;98281.72;4272725;33;33552;-92
2022/09/28 02:59:41;;;;;;;;;;;;;;;13.03;61.33;98286.66;4265311;33;35829;-91
2022/09/28 03:02:19;;;;;;;;;;;;;;;12.93;61.68;98278.44;4268991;33;33241;-87
2022/09/28 03:04:49;;;;;;;;;;;;;;;13.01;61.77;98297.12;4267745;33;34239;-89
2022/09/28 03:07:28;;;;;;;;;;;;;;;12.98;62.54;98302.50;4262048;33;34269;-89
2022/09/28 03:09:59;;;;;;;;;;;;;;;13.11;61.72;98299.31;4264280;33;32650;-90
2022/09/28 03:12:32;;;;;;;;;;;;;;;12.90;60.91;98317.63;4267914;33;34064;-91
2022/09/28 03:15:14;;;;;;;;;;;;;;;13.03;61.25;98317.91;4274131;33;35418;-91
2022/09/28 03:17:43;;;;;;;;;;;;;;;12.91;60.17;98311.47;4279676;33;34472;-91
2022/09/28 03:20:15;;;;;;;;;;;;;;;13.02;59.81;98304.03;4270982;33;34757;-91
2022/09/28 03:22:44;;;;;;;;;;;;;;;13.05;60.31;98318.69;4265798;33;33586;-88
2022/09/28 03:25:34;;;;;;;;;;;;;;;13.10;61.58;98311.50;4269661;33;34375;-90
2022/09/28 03:28:10;;;;;;;;;;;;;;;13.07;62.20;98321.19;4274908;33;35292;-91
2022/09/28 03:30:42;;;;;;;;;;;;;;;12.94;62.77;98313.94;4288013;33;34161;-89
2022/09/28 03:33:11;;;;;;;;;;;;;;;13.12;62.52;98308.81;4284243;33;33903;-90
2022/09/28 03:35:40;;;;;;;;;;;;;;;13.17;62.61;98310.31;4271587;33;34048;-88
2022/09/28 03:38:10;;;;;;;;;;;;;;;13.22;62.22;98310.09;4267255;33;34933;-90
2022/09/28 03:40:44;;;;;;;;;;;;;;;13.09;62.48;98306.34;4274136;33;34351;-90
2022/09/28 03:43:14;;;;;;;;;;;;;;;13.17;62.34;98312.91;4262453;33;34760;-89
2022/09/28 03:45:52;;;;;;;;;;;;;;;13.02;62.98;98316.19;4260412;33;34294;-90
2022/09/28 03:48:25;;;;;;;;;;;;;;;13.00;63.00;98318.03;4254901;33;33955;-89
2022/09/28 03:51:00;;;;;;;;;;;;;;;12.94;63.03;98321.75;4261017;33;33539;-91
2022/09/28 03:53:29;;;;;;;;;;;;;;;12.98;62.96;98319.88;4271949;33;33754;-89
2022/09/28 03:56:02;;;;;;;;;;;;;;;12.95;63.05;98318.25;4266727;33;35446;-90
2022/09/28 03:58:34;;;;;;;;;;;;;;;12.91;63.06;98311.47;4255517;33;34372;-92
2022/09/28 04:01:05;;;;;;;;;;;;;;;12.89;62.98;98315.06;4263770;33;34401;-90
2022/09/28 04:03:39;;;;;;;;;;;;;;;12.91;61.56;98310.66;4282451;33;33653;-91
2022/09/28 04:06:09;;;;;;;;;;;;;;;12.83;61.64;98308.37;4272516;33;34554;-89
2022/09/28 04:08:46;;;;;;;;;;;;;;;13.02;60.10;98308.37;4259583;33;34883;-89
2022/09/28 04:11:15;;;;;;;;;;;;;;;12.97;59.88;98307.75;4277910;33;34476;-88
2022/09/28 04:13:47;;;;;;;;;;;;;;;12.85;59.58;98305.69;4282717;33;33399;-88
2022/09/28 04:16:18;;;;;;;;;;;;;;;12.87;60.26;98309.91;4272062;33;34583;-88
2022/09/28 04:18:49;;;;;;;;;;;;;;;12.90;61.08;98308.94;4266163;33;34712;-90
2022/09/28 04:21:18;;;;;;;;;;;;;;;12.88;61.51;98305.56;4265453;33;34815;-88
2022/09/28 04:23:48;;;;;;;;;;;;;;;12.93;61.74;98311.44;4261755;33;34349;-89
2022/09/28 04:26:19;;;;;;;;;;;;;;;12.92;62.26;98313.16;4283054;33;33779;-90
2022/09/28 04:31:38;;;;;;;;;;;;;;;12.71;62.71;98301.09;4261591;33;34172;-92
2022/09/28 04:34:16;;;;;;;;;;;;;;;12.62;63.22;98301.53;4279253;33;33797;-89
2022/09/28 04:36:47;;;;;;;;;;;;;;;12.55;63.26;98300.94;4266389;33;34724;-89
2022/09/28 04:39:17;;;;;;;;;;;;;;;12.72;62.74;98302.81;4278714;33;34980;-88
2022/09/28 04:41:47;;;;;;;;;;;;;;;12.57;61.89;98302.56;4264773;33;33893;-90
2022/09/28 04:44:16;;;;;;;;;;;;;;;12.48;61.38;98313.34;4275781;33;33690;-88
2022/09/28 04:46:49;;;;;;;;;;;;;;;12.62;60.53;98311.94;4267410;33;34386;-89
2022/09/28 04:49:20;;;;;;;;;;;;;;;12.40;61.11;98309.41;4275794;33;32915;-92
2022/09/28 04:51:50;;;;;;;;;;;;;;;12.27;61.47;98309.06;4268280;33;35284;-88
2022/09/28 04:54:19;;;;;;;;;;;;;;;12.27;61.95;98303.88;4270196;33;34545;-88
2022/09/28 04:56:55;;;;;;;;;;;;;;;12.28;61.84;98296.00;4283598;33;33736;-88
2022/09/28 04:59:24;;;;;;;;;;;;;;;12.26;61.91;98292.63;4268842;33;35311;-89
2022/09/28 05:01:55;;;;;;;;;;;;;;;12.33;61.97;98299.25;4268284;33;31914;-88
2022/09/28 05:04:24;;;;;;;;;;;;;;;12.29;62.25;98302.88;4294395;33;32151;-90
2022/09/28 05:06:54;;;;;;;;;;;;;;;12.09;63.04;98302.91;4275586;33;34800;-89
2022/09/28 05:09:24;;;;;;;;;;;;;;;11.97;63.53;98308.59;4269569;33;35157;-89
2022/09/28 05:11:55;;;;;;;;;;;;;;;11.90;63.49;98311.44;4272282;33;34621;-89
2022/09/28 05:14:24;;;;;;;;;;;;;;;11.88;63.82;98315.84;4270896;33;33474;-88
2022/09/28 05:16:57;;;;;;;;;;;;;;;11.96;63.41;98318.16;4275663;33;34005;-89
2022/09/28 05:19:29;;;;;;;;;;;;;;;12.00;63.14;98314.50;4276367;33;34066;-91
2022/09/28 05:22:02;;;;;;;;;;;;;;;11.79;63.49;98313.62;4284557;33;34258;-88
2022/09/28 05:24:31;;;;;;;;;;;;;;;11.87;63.28;98326.31;4282503;33;32896;-89
2022/09/28 05:27:03;;;;;;;;;;;;;;;11.67;64.08;98329.66;4286403;33;34024;-87
2022/09/28 05:29:32;;;;;;;;;;;;;;;11.74;63.84;98326.78;4270802;33;34058;-89
2022/09/28 05:32:07;;;;;;;;;;;;;;;11.81;63.75;98327.38;4285551;33;33747;-90
2022/09/28 05:34:36;;;;;;;;;;;;;;;11.89;63.57;98325.34;4269409;33;32934;-88
2022/09/28 05:37:12;;;;;;;;;;;;;;;11.99;63.26;98324.97;4268384;33;36409;-90
2022/09/28 05:39:47;;;;;;;;;;;;;;;12.03;62.35;98329.13;4266666;33;35279;-89
2022/09/28 05:42:16;;;;;;;;;;;;;;;11.85;63.21;98328.09;4274441;33;34363;-90
2022/09/28 05:44:47;;;;;;;;;;;;;;;11.82;63.99;98325.63;4273532;33;32795;-88
2022/09/28 05:47:18;;;;;;;;;;;;;;;11.89;63.88;98329.72;4261015;33;35062;-88
2022/09/28 05:49:48;;;;;;;;;;;;;;;12.13;63.49;98322.66;4262226;33;35233;-88
2022/09/28 05:52:17;;;;;;;;;;;;;;;12.18;63.25;98310.31;4267703;33;33696;-88
2022/09/28 05:54:49;;;;;;;;;;;;;;;12.40;62.12;98314.63;4269586;33;34499;-90
2022/09/28 05:57:17;;;;;;;;;;;;;;;12.44;61.30;98316.16;4283620;33;34582;-88
2022/09/28 05:59:50;;;;;;;;;;;;;;;12.47;61.19;98316.03;4267483;33;35228;-87
2022/09/28 06:02:20;;;;;;;;;;;;;;;12.57;60.45;98317.34;4269397;33;32749;-89
2022/09/28 06:04:57;;;;;;;;;;;;;;;12.56;61.02;98320.81;4283488;33;33542;-90
2022/09/28 06:07:38;;;;;;;;;;;;;;;12.74;60.76;98314.84;4270977;33;33398;-90
2022/09/28 06:10:17;;;;;;;;;;;;;;;12.62;60.93;98323.19;4283954;33;33349;-87
2022/09/28 06:12:47;;;;;;;;;;;;;;;12.81;60.40;98324.06;4268413;33;34541;-86
2022/09/28 06:15:16;;;;;;;;;;;;;;;12.97;59.74;98323.38;4283593;33;33389;-87
2022/09/28 06:18:01;;;;;;;;;;;;;;;13.02;59.07;98324.00;4283018;33;35263;-92
2022/09/28 06:20:35;;;;;;;;;;;;;;;12.98;59.42;98318.09;4272063;33;33989;-89
2022/09/28 06:23:13;;;;;;;;;;;;;;;13.12;58.81;98317.50;4269936;33;32926;-91
2022/09/28 06:25:51;;;;;;;;;;;;;;;13.27;57.90;98323.78;4283175;33;33233;-90
2022/09/28 06:28:34;;;;;;;;;;;;;;;13.23;58.18;98317.81;4268090;33;34627;-90
2022/09/28 06:31:22;;;;;;;;;;;;;;;13.25;58.35;98320.38;4286152;33;34651;-90
2022/09/28 06:34:00;;;;;;;;;;;;;;;13.25;56.49;98325.56;4282684;33;34118;-89
2022/09/28 06:36:37;;;;;;;;;;;;;;;13.35;56.25;98321.66;4283320;33;34043;-90
2022/09/28 06:39:16;;;;;;;;;;;;;;;13.08;57.79;98328.12;4284777;33;33984;-89
2022/09/28 06:41:55;;;;;;;;;;;;;;;13.35;57.64;98328.62;4264681;33;33326;-87
2022/09/28 06:44:37;;;;;;;;;;;;;;;13.55;57.50;98325.94;4263920;33;33616;-91
2022/09/28 06:47:14;;;;;;;;;;;;;;;13.55;57.11;98325.09;4275626;33;34302;-88
2022/09/28 06:50:13;;;;;;;;;;;;;;;13.74;56.76;98335.50;4282455;33;33439;-94
2022/09/28 06:53:08;;;;;;;;;;;;;;;13.49;56.70;98341.88;4258801;33;33292;-92
2022/09/28 06:56:22;;;;;;;;;;;;;;;13.94;55.64;98343.22;4266864;33;36249;-95
2022/09/28 06:59:50;;;;;;;;;;;;;;;13.95;54.81;98336.22;4284961;33;33409;-94
2022/09/28 07:02:56;;;;;;;;;;;;;;;13.85;55.69;98330.63;4266252;33;33521;-91
2022/09/28 07:05:47;;;;;;;;;;;;;;;14.26;54.16;98328.56;4283288;33;33320;-91
2022/09/28 07:08:42;;;;;;;;;;;;;;;14.09;54.58;98329.41;4283473;33;32657;-90
2022/09/28 07:11:48;;;;;;;;;;;;;;;14.21;53.77;98337.56;4268337;33;32464;-91
2022/09/28 07:14:29;;;;;;;;;;;;;;;14.38;54.03;98336.72;4284157;33;33322;-90
2022/09/28 07:17:37;;;;;;;;;;;;;;;14.68;51.78;98332.56;4280836;33;34238;-92
2022/09/28 07:20:43;;;;;;;;;;;;;;;14.36;53.53;98334.19;4266917;33;34875;-88
2022/09/28 07:23:26;;;;;;;;;;;;;;;14.57;53.13;98334.03;4268313;33;32873;-89
2022/09/28 07:26:06;;;;;;;;;;;;;;;14.61;53.24;98327.75;4271677;33;35507;-92
2022/09/28 07:29:20;;;;;;;;;;;;;;;14.54;54.17;98329.81;4269399;33;34938;-91
2022/09/28 07:32:33;;;;;;;;;;;;;;;14.99;51.34;98325.75;4289619;33;34479;-90
2022/09/28 07:35:31;;;;;;;;;;;;;;;14.89;55.32;98321.94;4270728;33;32288;-92
2022/09/28 07:38:13;;;;;;;;;;;;;;;14.67;54.46;98322.22;4279928;33;33458;-92
2022/09/28 07:41:21;;;;;;;;;;;;;;;14.96;53.28;98319.84;4280084;33;33909;-90
2022/09/28 07:44:29;;;;;;;;;;;;;;;15.09;53.41;98316.47;4279696;33;34630;-91
2022/09/28 07:47:25;;;;;;;;;;;;;;;15.10;53.93;98325.16;4277996;33;33831;-91
2022/09/28 07:50:21;;;;;;;;;;;;;;;14.97;54.29;98329.34;4279982;33;33546;-91
2022/09/28 07:53:13;;;;;;;;;;;;;;;15.04;55.99;98330.72;4267345;33;34452;-89
2022/09/28 07:56:12;;;;;;;;;;;;;;;15.08;55.88;98335.72;4284421;33;33663;-90
2022/09/28 07:59:00;;;;;;;;;;;;;;;15.24;56.69;98337.50;4282656;33;32947;-93
2022/09/28 08:02:10;;;;;;;;;;;;;;;15.35;57.68;98341.22;4269568;33;32198;-90
2022/09/28 08:05:08;;;;;;;;;;;;;;;15.56;58.19;98340.97;4281402;33;34529;-92
2022/09/28 08:07:48;;;;;;;;;;;;;;;15.65;56.61;98339.63;4285463;33;33375;-92
2022/09/28 08:10:38;;;;;;;;;;;;;;;15.62;55.89;98334.56;4267966;33;33932;-94
2022/09/28 08:13:22;;;;;;;;;;;;;;;15.57;56.38;98334.81;4282811;33;34177;-90
2022/09/28 08:16:03;;;;;;;;;;;;;;;15.71;55.77;98324.47;4268703;33;32953;-90
2022/09/28 08:19:04;;;;;;;;;;;;;;;15.72;55.67;98313.06;4261847;33;34723;-91
2022/09/28 08:21:46;;;;;;;;;;;;;;;15.82;55.85;98302.09;4277804;33;32889;-91
2022/09/28 08:24:51;;;;;;;;;;;;;;;15.56;56.51;98296.53;4280045;33;34813;-93
2022/09/28 08:27:35;;;;;;;;;;;;;;;15.85;56.40;98302.78;4286008;33;36153;-90
2022/09/28 08:30:21;;;;;;;;;;;;;;;15.96;55.48;98299.53;4278540;33;34921;-91
2022/09/28 08:33:02;;;;;;;;;;;;;;;15.80;56.90;98302.16;4263354;33;35985;-93
2022/09/28 08:35:39;;;;;;;;;;;;;;;15.94;55.68;98304.00;4269787;33;36117;-89
2022/09/28 08:38:08;;;;;;;;;;;;;;;15.93;55.90;98316.25;4280708;33;34871;-87
2022/09/28 08:40:59;;;;;;;;;;;;;;;16.08;55.54;98322.38;4264474;33;33114;-91
2022/09/28 08:43:43;;;;;;;;;;;;;;;16.18;56.05;98322.69;4269240;33;33478;-93
2022/09/28 08:46:13;;;;;;;;;;;;;;;16.01;56.26;98323.66;4284097;33;35777;-89
2022/09/28 08:48:55;;;;;;;;;;;;;;;16.25;56.68;98326.63;4263655;33;34802;-90
2022/09/28 08:51:51;;;;;;;;;;;;;;;16.16;55.57;98335.88;4265972;33;36630;-90
2022/09/28 08:54:32;;;;;;;;;;;;;;;16.21;54.90;98328.59;4283630;33;34155;-89
2022/09/28 08:57:04;;;;;;;;;;;;;;;16.24;56.22;98327.56;4275306;33;34233;-90
2022/09/28 08:59:59;;;;;;;;;;;;;;;16.36;56.08;98324.25;4283101;33;33433;-90
2022/09/28 09:02:33;;;;;;;;;;;;;;;16.28;56.29;98307.28;4275434;33;33898;-93
2022/09/28 09:05:29;;;;;;;;;;;;;;;16.46;57.09;98311.44;4267461;33;32882;-93
2022/09/28 09:08:07;;;;;;;;;;;;;;;16.71;54.72;98308.19;4284500;33;34648;-90
2022/09/28 09:10:56;;;;;;;;;;;;;;;16.72;56.06;98306.41;4274377;33;35726;-93
2022/09/28 09:13:54;;;;;;;;;;;;;;;16.79;54.04;98307.75;4288862;33;34998;-90
2022/09/28 09:16:37;;;;;;;;;;;;;;;16.70;53.80;98305.69;4283877;33;32864;-90
2022/09/28 09:19:16;;;;;;;;;;;;;;;16.70;54.65;98295.22;4285136;33;33196;-89
2022/09/28 09:22:04;;;;;;;;;;;;;;;16.86;54.56;98293.34;4274211;33;33377;-89
2022/09/28 09:24:52;;;;;;;;;;;;;;;16.83;53.76;98298.78;4289860;33;34997;-90
2022/09/28 09:27:47;;;;;;;;;;;;;;;16.85;54.32;98302.16;4268711;33;32827;-92
2022/09/28 09:30:28;;;;;;;;;;;;;;;17.01;52.33;98294.19;4286285;33;33325;-91
2022/09/28 09:33:23;;;;;;;;;;;;;;;17.11;52.46;98304.97;4275274;33;32725;-94
2022/09/28 09:36:18;;;;;;;;;;;;;;;17.28;52.50;98294.25;4283862;33;34630;-89
2022/09/28 09:39:03;;;;;;;;;;;;;;;17.42;51.90;98293.37;4287490;33;32697;-90
2022/09/28 09:42:31;;;;;;;;;;;;;;;17.29;52.92;98298.56;4275954;33;34369;-90
2022/09/28 09:45:38;;;;;;;;;;;;;;;17.36;52.50;98301.66;4273344;33;34271;-91
2022/09/28 09:51:26;;;;;;;;;;;;;;;17.53;52.80;98300.56;4291735;33;33363;-90
2022/09/28 09:54:06;;;;;;;;;;;;;;;17.54;54.42;98299.63;4287518;33;33699;-90
2022/09/28 09:56:57;;;;;;;;;;;;;;;17.64;52.73;98298.12;4268870;33;36292;-90
2022/09/28 10:00:00;;;;;;;;;;;;;;;17.64;52.67;98300.75;4273001;33;33048;-91
2022/09/28 10:03:05;;;;;;;;;;;;;;;17.75;53.31;98298.25;4270513;33;35001;-92
2022/09/28 10:06:09;;;;;;;;;;;;;;;17.89;52.17;98300.84;4274334;33;34221;-90
2022/09/28 10:09:09;;;;;;;;;;;;;;;17.95;51.51;98304.00;4268804;33;33515;-90
2022/09/28 10:11:55;;;;;;;;;;;;;;;17.92;52.64;98302.41;4267994;33;35085;-91
2022/09/28 10:14:46;;;;;;;;;;;;;;;18.15;51.80;98310.59;4282377;33;32020;-92
2022/09/28 10:17:48;;;;;;;;;;;;;;;17.96;51.87;98308.31;4275057;33;36281;-91
2022/09/28 10:20:44;;;;;;;;;;;;;;;17.84;50.36;98312.59;4275481;33;33945;-90
2022/09/28 10:23:25;;;;;;;;;;;;;;;18.07;50.75;98317.19;4274751;33;33264;-90
2022/09/28 10:26:00;;;;;;;;;;;;;;;18.21;50.94;98311.00;4273644;33;32976;-89
2022/09/28 10:28:51;;;;;;;;;;;;;;;18.28;51.34;98309.66;4271840;33;33052;-89
2022/09/28 10:31:41;;;;;;;;;;;;;;;18.42;50.90;98305.28;4273980;33;38043;-89
2022/09/28 10:34:39;;;;;;;;;;;;;;;18.48;49.64;98304.84;4267598;33;36435;-94
2022/09/28 10:37:48;;;;;;;;;;;;;;;18.46;49.03;98306.72;4281540;33;32552;-89
2022/09/28 10:40:29;;;;;;;;;;;;;;;18.43;50.50;98305.16;4287555;33;34128;-90
2022/09/28 10:43:19;;;;;;;;;;;;;;;18.36;51.35;98303.03;4288771;33;34533;-92
2022/09/28 10:46:14;;;;;;;;;;;;;;;18.36;51.83;98300.41;4286027;33;34028;-89
2022/09/28 10:48:57;;;;;;;;;;;;;;;18.75;50.91;98302.97;4285555;33;33215;-91
2022/09/28 10:51:39;;;;;;;;;;;;;;;18.65;49.77;98307.19;4284491;33;34146;-91
2022/09/28 10:57:23;;;;;;;;;;;;;;;18.67;48.80;98294.75;4264784;33;34422;-91
2022/09/28 11:00:34;;;;;;;;;;;;;;;18.49;49.24;98298.66;4255781;33;34314;-90
2022/09/28 11:03:36;;;;;;;;;;;;;;;18.59;48.65;98293.63;4269658;33;34935;-89
2022/09/28 11:09:33;;;;;;;;;;;;;;;18.47;50.61;98280.38;4260468;33;36678;-89
2022/09/28 11:12:20;;;;;;;;;;;;;;;18.94;51.13;98276.28;4275035;33;33368;-91
2022/09/28 11:15:21;;;;;;;;;;;;;;;18.97;48.83;98273.44;4254101;33;35145;-91
2022/09/28 11:18:21;;;;;;;;;;;;;;;19.28;48.01;98268.66;4274824;33;33618;-91
2022/09/28 11:21:12;;;;;;;;;;;;;;;19.59;46.40;98261.16;4261987;33;36492;-89
2022/09/28 11:24:08;;;;;;;;;;;;;;;19.49;48.46;98260.97;4271982;33;34205;-89
2022/09/28 11:26:55;;;;;;;;;;;;;;;19.51;47.95;98261.72;4251364;33;34198;-89
2022/09/28 11:29:40;;;;;;;;;;;;;;;19.72;47.68;98256.72;4267353;33;34685;-89
2022/09/28 11:32:34;;;;;;;;;;;;;;;19.66;48.44;98259.75;4261027;33;37123;-89
2022/09/28 11:35:23;;;;;;;;;;;;;;;19.80;46.71;98253.50;4276359;33;34418;-91
2022/09/28 11:38:04;;;;;;;;;;;;;;;19.75;46.63;98261.75;4276867;33;35258;-90
2022/09/28 11:41:08;;;;;;;;;;;;;;;19.55;45.76;98263.19;4259324;33;34932;-90
2022/09/28 11:46:50;;;;;;;;;;;;;;;19.69;46.96;98250.81;4268583;33;33557;-89
2022/09/28 11:49:44;;;;;;;;;;;;;;;19.62;46.09;98255.69;4234949;33;1196146;-92
2022/09/28 11:52:44;;;;;;;;;;;;;;;19.44;46.97;98262.28;4269015;33;34190;-92
2022/09/28 11:55:46;;;;;;;;;;;;;;;19.28;46.54;98263.37;4262802;33;32725;-89
2022/09/28 11:58:35;;;;;;;;;;;;;;;19.49;45.89;98258.34;4283816;33;33168;-89
2022/09/28 12:01:19;;;;;;;;;;;;;;;19.52;47.06;98245.00;4272112;33;33140;-90
2022/09/28 12:04:27;;;;;;;;;;;;;;;19.78;47.86;98232.56;4253513;33;34220;-89
2022/09/28 12:07:38;;;;;;;;;;;;;;;20.03;44.82;98230.75;4262882;33;36717;-89
2022/09/28 12:10:17;;;;;;;;;;;;;;;19.86;45.78;98226.75;4255218;33;32105;-92
2022/09/28 12:12:55;;;;;;;;;;;;;;;20.08;46.55;98227.75;4271977;33;34231;-88
2022/09/28 12:15:44;;;;;;;;;;;;;;;20.15;44.00;98224.56;4260153;33;34703;-89
2022/09/28 12:18:47;;;;;;;;;;;;;;;20.19;44.32;98219.88;4271924;33;34036;-90
2022/09/28 12:21:45;;;;;;;;;;;;;;;20.23;44.97;98219.53;4275302;33;33780;-88
2022/09/28 12:24:32;;;;;;;;;;;;;;;20.08;45.27;98211.94;4254581;33;36435;-91
2022/09/28 12:27:37;;;;;;;;;;;;;;;20.46;45.91;98216.91;4262994;33;36642;-89
2022/09/28 12:30:24;;;;;;;;;;;;;;;20.59;46.84;98215.06;4285703;33;34842;-88
2022/09/28 12:33:14;;;;;;;;;;;;;;;20.54;44.86;98211.06;4279777;33;33470;-93
2022/09/28 12:36:25;;;;;;;;;;;;;;;20.52;45.06;98199.81;4267526;33;37361;-91
2022/09/28 12:39:19;;;;;;;;;;;;;;;20.49;45.78;98197.41;4272051;33;34770;-90
2022/09/28 12:42:05;;;;;;;;;;;;;;;20.41;45.24;98196.19;4272590;33;35355;-89
2022/09/28 12:44:52;;;;;;;;;;;;;;;20.13;45.40;98186.97;4260341;33;32273;-92
2022/09/28 12:48:07;;;;;;;;;;;;;;;20.24;46.09;98200.13;4276079;33;34247;-89
2022/09/28 12:51:05;;;;;;;;;;;;;;;20.04;45.92;98196.41;4272592;33;33949;-90
2022/09/28 12:53:48;;;;;;;;;;;;;;;20.04;45.42;98198.19;4265768;33;34425;-91
2022/09/28 12:56:55;;;;;;;;;;;;;;;19.77;46.34;98195.84;4275824;33;34532;-91
2022/09/28 12:59:34;;;;;;;;;;;;;;;20.05;46.56;98184.06;4265288;33;36505;-91
2022/09/28 13:02:39;;;;;;;;;;;;;;;20.02;46.37;98186.94;4264876;33;33424;-89
2022/09/28 13:05:24;;;;;;;;;;;;;;;20.11;46.66;98191.50;4274912;33;33786;-89
2022/09/28 13:08:28;;;;;;;;;;;;;;;19.97;46.47;98189.09;4243760;33;33152;-91
2022/09/28 13:11:21;;;;;;;;;;;;;;;20.04;46.77;98185.03;4247637;33;34257;-91
2022/09/28 13:14:18;;;;;;;;;;;;;;;20.26;46.55;98178.97;4249170;33;36983;-89
2022/09/28 13:17:01;;;;;;;;;;;;;;;20.42;45.35;98178.63;4255793;33;34556;-88
2022/09/28 13:20:03;;;;;;;;;;;;;;;20.41;45.47;98171.66;4256771;33;33178;-90
2022/09/28 13:23:14;;;;;;;;;;;;;;;20.32;44.51;98178.50;4256076;33;36528;-91
2022/09/28 13:26:17;;;;;;;;;;;;;;;20.71;45.10;98186.91;4270680;33;33940;-92
2022/09/28 13:29:26;;;;;;;;;;;;;;;20.69;44.87;98190.62;4261669;33;34079;-88
2022/09/28 13:32:10;;;;;;;;;;;;;;;20.36;44.44;98187.81;4259996;33;32818;-90
2022/09/28 13:34:51;;;;;;;;;;;;;;;20.44;45.20;98187.22;4259862;33;36876;-90
2022/09/28 13:37:36;;;;;;;;;;;;;;;20.57;44.79;98177.44;4251944;33;34640;-88
2022/09/28 13:40:16;;;;;;;;;;;;;;;20.14;45.77;98177.28;4260238;33;32739;-88
2022/09/28 13:42:53;;;;;;;;;;;;;;;20.34;44.88;98179.19;4270686;33;33777;-89
2022/09/28 13:45:57;;;;;;;;;;;;;;;19.94;45.80;98179.63;4257590;33;32011;-89
2022/09/28 13:48:41;;;;;;;;;;;;;;;19.80;42.87;98182.47;4265938;33;35099;-92
2022/09/28 13:51:17;;;;;;;;;;;;;;;20.09;43.54;98184.69;4262646;33;36526;-90
2022/09/28 13:54:05;;;;;;;;;;;;;;;19.98;42.43;98181.09;4271373;33;33790;-90
2022/09/28 13:56:55;;;;;;;;;;;;;;;19.87;43.33;98182.84;4266835;33;33225;-89
2022/09/28 13:59:34;;;;;;;;;;;;;;;19.67;43.59;98184.28;4259200;33;35525;-89
2022/09/28 14:02:11;;;;;;;;;;;;;;;20.05;44.13;98181.44;4252492;33;36394;-88
2022/09/28 14:04:53;;;;;;;;;;;;;;;19.89;43.92;98181.78;4249367;33;33658;-90
2022/09/28 14:07:32;;;;;;;;;;;;;;;20.05;43.44;98191.97;4274509;33;34396;-90
2022/09/28 14:10:17;;;;;;;;;;;;;;;20.11;42.13;98190.69;4262469;33;33155;-89
2022/09/28 14:13:03;;;;;;;;;;;;;;;20.17;42.86;98184.94;4256744;33;34562;-90
2022/09/28 14:15:47;;;;;;;;;;;;;;;19.93;42.62;98188.47;4255550;33;32551;-88
2022/09/28 14:18:28;;;;;;;;;;;;;;;19.84;42.56;98183.91;4271055;33;33939;-91
2022/09/28 14:21:26;;;;;;;;;;;;;;;19.71;43.25;98180.50;4259000;33;33638;-89